Time;durP1;ratioP1;P1;durP2;ratioP2;P2;SDS_P1;SDS_P2;PMS_P1;PMS_P2;Temp;Humidity;BMP_temperature;BMP_pressure;BME280_temperature;BME280_humidity;BME280_pressure;Samples;Min_cycle;Max_cycle;Signal;HPM_P1;HPM_P2
2023/04/23 00:00:51;;;;;;;430.20;93.75;;;7.20;99.90;;;;;;5074167;28;20110;-68
2023/04/23 00:03:18;;;;;;;411.20;91.95;;;7.20;99.90;;;;;;5091149;28;20129;-68
2023/04/23 00:05:44;;;;;;;437.73;97.05;;;7.20;99.90;;;;;;5090995;28;20040;-68
2023/04/23 00:08:10;;;;;;;473.65;95.72;;;7.20;99.90;;;;;;5072652;28;20522;-68
2023/04/23 00:10:36;;;;;;;333.75;88.15;;;7.20;99.90;;;;;;5090984;28;20130;-68
2023/04/23 00:13:03;;;;;;;394.30;93.13;;;7.20;99.90;;;;;;5090613;28;20471;-69
2023/04/23 00:15:29;;;;;;;283.98;86.32;;;7.20;99.90;;;;;;5091454;28;20092;-69
2023/04/23 00:17:55;;;;;;;395.52;88.93;;;7.20;99.90;;;;;;5088660;28;20049;-68
2023/04/23 00:20:21;;;;;;;299.48;87.68;;;7.20;99.90;;;;;;5088593;28;20518;-69
2023/04/23 00:22:47;;;;;;;278.05;85.60;;;7.20;99.90;;;;;;5092910;27;20044;-69
2023/04/23 00:25:13;;;;;;;328.52;87.95;;;7.20;99.90;;;;;;5087790;28;20049;-68
2023/04/23 00:27:39;;;;;;;341.13;86.28;;;7.20;99.90;;;;;;5109701;28;20126;-69
2023/04/23 00:30:05;;;;;;;285.95;86.60;;;7.20;99.90;;;;;;5124828;27;20101;-68
2023/04/23 00:32:31;;;;;;;380.58;91.15;;;7.20;99.90;;;;;;5110706;27;20114;-69
2023/04/23 00:34:57;;;;;;;277.77;88.05;;;7.20;99.90;;;;;;5086918;28;20554;-69
2023/04/23 00:37:22;;;;;;;350.52;91.13;;;7.20;99.90;;;;;;5093211;28;20498;-68
2023/04/23 00:39:48;;;;;;;288.98;86.00;;;7.10;99.90;;;;;;5108906;28;20123;-69
2023/04/23 00:42:16;;;;;;;249.38;91.28;;;7.10;99.90;;;;;;5088677;28;20035;-69
2023/04/23 00:44:42;;;;;;;380.45;94.60;;;7.20;99.90;;;;;;5090007;28;20079;-70
2023/04/23 00:47:09;;;;;;;145.77;85.97;;;7.10;99.90;;;;;;5084633;28;20051;-70
2023/04/23 00:49:36;;;;;;;182.90;88.05;;;7.10;99.90;;;;;;5089443;28;20035;-70
2023/04/23 00:52:02;;;;;;;158.05;84.65;;;7.10;99.90;;;;;;5086933;28;20039;-70
2023/04/23 00:54:30;;;;;;;118.07;83.85;;;7.10;99.90;;;;;;5105890;28;20573;-71
2023/04/23 00:56:58;;;;;;;138.48;82.47;;;7.10;99.90;;;;;;5085670;28;20431;-68
2023/04/23 00:59:27;;;;;;;117.03;85.50;;;7.10;99.90;;;;;;5097531;28;20067;-69
2023/04/23 01:01:54;;;;;;;126.25;84.10;;;7.00;99.90;;;;;;5087176;28;20092;-68
2023/04/23 01:04:23;;;;;;;97.60;83.03;;;7.00;99.90;;;;;;5088639;28;20040;-68
2023/04/23 01:06:49;;;;;;;95.82;82.43;;;7.00;99.90;;;;;;5122210;27;20043;-69
2023/04/23 01:09:16;;;;;;;90.68;81.38;;;6.90;99.90;;;;;;5087600;28;20108;-69
2023/04/23 01:11:43;;;;;;;124.43;81.85;;;6.90;99.90;;;;;;5088717;28;20953;-69
2023/04/23 01:14:10;;;;;;;96.05;84.00;;;6.80;99.90;;;;;;5107375;28;20128;-69
2023/04/23 01:16:37;;;;;;;106.95;83.50;;;6.80;99.90;;;;;;5088035;28;20088;-69
2023/04/23 01:19:06;;;;;;;110.95;84.82;;;6.70;99.90;;;;;;5090387;28;20478;-70
2023/04/23 01:21:34;;;;;;;100.07;84.53;;;6.70;99.90;;;;;;5088531;28;20035;-69
2023/04/23 01:24:00;;;;;;;105.47;86.47;;;6.70;99.90;;;;;;5086474;28;20455;-69
2023/04/23 01:26:26;;;;;;;105.03;85.45;;;6.70;99.90;;;;;;5072785;28;20118;-69
2023/04/23 01:28:52;;;;;;;110.20;85.90;;;6.70;99.90;;;;;;5089416;28;20051;-68
2023/04/23 01:31:18;;;;;;;112.50;84.03;;;6.60;99.90;;;;;;5086958;28;20032;-69
2023/04/23 01:33:44;;;;;;;93.57;83.22;;;6.60;99.90;;;;;;5089919;28;20471;-68
2023/04/23 01:36:10;;;;;;;94.47;84.45;;;6.60;99.90;;;;;;5086820;28;20035;-70
2023/04/23 01:38:37;;;;;;;95.88;85.90;;;6.60;99.90;;;;;;5088516;28;20035;-70
2023/04/23 01:41:03;;;;;;;91.90;81.80;;;6.60;99.90;;;;;;5087617;28;20185;-71
2023/04/23 01:43:30;;;;;;;130.93;85.65;;;6.60;99.90;;;;;;5071591;28;20126;-71
2023/04/23 01:45:57;;;;;;;119.47;89.50;;;6.70;99.90;;;;;;5088654;28;20484;-71
2023/04/23 01:48:23;;;;;;;98.60;86.25;;;6.60;99.90;;;;;;5071722;28;20093;-69
2023/04/23 01:50:50;;;;;;;110.88;90.88;;;6.70;99.90;;;;;;5088821;28;20591;-69
2023/04/23 01:53:16;;;;;;;113.22;91.68;;;6.60;99.90;;;;;;5071726;28;20100;-69
2023/04/23 01:55:44;;;;;;;112.32;88.85;;;6.60;99.90;;;;;;5085654;28;20062;-69
2023/04/23 01:58:10;;;;;;;99.53;87.22;;;6.60;99.90;;;;;;5063174;28;20050;-68
2023/04/23 02:00:35;;;;;;;116.82;87.72;;;6.60;99.90;;;;;;5090256;28;20039;-69
2023/04/23 02:03:01;;;;;;;104.20;86.78;;;6.60;99.90;;;;;;5089012;28;20040;-69
2023/04/23 02:05:28;;;;;;;116.03;91.60;;;6.60;99.90;;;;;;5088239;28;20042;-68
2023/04/23 02:07:55;;;;;;;124.55;97.07;;;6.50;99.90;;;;;;5087552;28;20039;-69
2023/04/23 02:10:21;;;;;;;127.97;95.63;;;6.50;99.90;;;;;;5104209;28;20114;-70
2023/04/23 02:12:47;;;;;;;125.10;95.30;;;6.50;99.90;;;;;;5086532;28;20504;-69
2023/04/23 02:15:13;;;;;;;116.15;93.93;;;6.50;99.90;;;;;;5070884;28;20096;-69
2023/04/23 02:17:40;;;;;;;121.72;95.75;;;6.50;99.90;;;;;;5086329;28;20410;-69
2023/04/23 02:20:08;;;;;;;127.00;94.85;;;6.50;99.90;;;;;;5108155;28;20039;-68
2023/04/23 02:22:38;;;;;;;129.75;97.25;;;6.50;99.90;;;;;;5074791;27;20047;-69
2023/04/23 02:25:06;;;;;;;129.13;95.55;;;6.40;99.90;;;;;;5070931;28;20047;-68
2023/04/23 02:27:32;;;;;;;135.27;95.85;;;6.40;99.90;;;;;;5085790;28;20044;-69
2023/04/23 02:29:58;;;;;;;136.20;99.88;;;6.40;99.90;;;;;;5088939;28;20045;-69
2023/04/23 02:32:23;;;;;;;197.13;98.22;;;6.30;99.90;;;;;;5088175;28;20035;-69
2023/04/23 02:34:49;;;;;;;137.90;98.55;;;6.30;99.90;;;;;;5071814;28;20067;-71
2023/04/23 02:37:15;;;;;;;213.65;99.13;;;6.30;99.90;;;;;;5085731;28;20507;-70
2023/04/23 02:39:41;;;;;;;160.75;105.57;;;6.30;99.90;;;;;;5088660;28;20032;-70
2023/04/23 02:42:06;;;;;;;186.68;107.05;;;6.40;99.90;;;;;;5106131;28;20036;-70
2023/04/23 02:44:32;;;;;;;201.45;106.63;;;6.50;99.90;;;;;;5071120;28;20039;-71
2023/04/23 02:46:58;;;;;;;243.20;109.57;;;6.60;99.90;;;;;;5071765;28;20410;-71
2023/04/23 02:49:23;;;;;;;297.38;110.75;;;6.60;99.90;;;;;;5086947;28;20550;-70
2023/04/23 02:51:49;;;;;;;326.13;113.10;;;6.80;99.90;;;;;;5071166;28;20053;-70
2023/04/23 02:54:15;;;;;;;306.48;111.40;;;6.80;99.90;;;;;;5085122;28;20119;-71
2023/04/23 02:56:41;;;;;;;365.58;116.97;;;6.90;99.90;;;;;;5107117;28;20035;-70
2023/04/23 02:59:07;;;;;;;423.00;114.07;;;6.90;99.90;;;;;;5087991;28;20044;-71
2023/04/23 03:01:33;;;;;;;432.63;115.72;;;7.00;99.90;;;;;;5088463;28;20031;-71
2023/04/23 03:03:59;;;;;;;410.90;116.82;;;7.00;99.90;;;;;;5086307;28;20067;-71
2023/04/23 03:06:25;;;;;;;550.25;126.55;;;7.00;99.90;;;;;;5088036;28;20109;-71
2023/04/23 03:08:51;;;;;;;469.95;126.60;;;7.00;99.90;;;;;;5068671;28;20043;-71
2023/04/23 03:11:16;;;;;;;471.95;128.35;;;7.10;99.90;;;;;;5071024;28;20414;-71
2023/04/23 03:13:42;;;;;;;559.10;137.63;;;7.10;99.90;;;;;;5087081;28;20036;-71
2023/04/23 03:16:08;;;;;;;552.53;137.05;;;7.10;99.90;;;;;;5092764;28;20047;-71
2023/04/23 03:18:34;;;;;;;519.60;138.13;;;7.10;99.90;;;;;;5109926;28;20036;-71
2023/04/23 03:20:59;;;;;;;644.03;139.77;;;7.10;99.90;;;;;;5092740;28;20042;-71
2023/04/23 03:23:25;;;;;;;502.02;136.25;;;7.10;99.90;;;;;;5090247;28;20173;-70
2023/04/23 03:25:51;;;;;;;633.70;138.80;;;7.10;99.90;;;;;;5090347;28;20054;-70
2023/04/23 03:28:16;;;;;;;573.33;139.02;;;7.20;99.90;;;;;;5072936;28;20047;-71
2023/04/23 03:30:42;;;;;;;556.20;131.80;;;7.20;99.90;;;;;;5089591;28;20094;-70
2023/04/23 03:33:08;;;;;;;543.28;131.38;;;7.20;99.90;;;;;;5074702;28;20050;-70
2023/04/23 03:35:33;;;;;;;561.03;135.75;;;7.20;99.90;;;;;;5089643;28;20485;-71
2023/04/23 03:37:59;;;;;;;519.67;133.93;;;7.20;99.90;;;;;;5092203;27;20027;-70
2023/04/23 03:40:25;;;;;;;503.33;133.02;;;7.20;99.90;;;;;;5111111;28;20184;-71
2023/04/23 03:42:50;;;;;;;485.42;129.98;;;7.20;99.90;;;;;;5091944;28;20054;-71
2023/04/23 03:45:16;;;;;;;571.28;133.35;;;7.20;99.90;;;;;;5089730;28;20040;-71
2023/04/23 03:47:42;;;;;;;564.45;135.02;;;7.30;99.90;;;;;;5091849;28;20042;-70
2023/04/23 03:50:08;;;;;;;359.75;130.63;;;7.30;99.90;;;;;;5073652;28;20079;-70
2023/04/23 03:52:34;;;;;;;404.00;132.07;;;7.30;99.90;;;;;;5092013;28;20040;-71
2023/04/23 03:55:01;;;;;;;418.60;127.35;;;7.30;99.90;;;;;;5089323;28;20400;-71
2023/04/23 03:57:26;;;;;;;488.70;125.70;;;7.30;99.90;;;;;;5082788;28;20043;-71
2023/04/23 03:59:52;;;;;;;432.73;126.28;;;7.30;99.90;;;;;;5056173;28;20036;-71
2023/04/23 04:02:18;;;;;;;402.27;126.40;;;7.30;99.90;;;;;;5111096;27;20494;-71
2023/04/23 04:04:44;;;;;;;349.73;123.28;;;7.30;99.90;;;;;;5073316;28;20041;-71
2023/04/23 04:07:11;;;;;;;368.55;123.10;;;7.40;99.90;;;;;;5112194;27;20035;-71
2023/04/23 04:09:38;;;;;;;351.60;120.70;;;7.40;99.90;;;;;;5092052;28;20873;-71
2023/04/23 04:12:04;;;;;;;403.92;123.68;;;7.40;99.90;;;;;;5091013;28;20055;-71
2023/04/23 04:14:31;;;;;;;283.23;110.00;;;7.40;99.90;;;;;;5091923;28;20040;-71
2023/04/23 04:16:57;;;;;;;418.58;119.47;;;7.40;99.90;;;;;;5088089;28;20071;-71
2023/04/23 04:19:23;;;;;;;358.75;111.20;;;7.40;99.90;;;;;;5073477;28;20062;-70
2023/04/23 04:21:50;;;;;;;362.58;115.00;;;7.50;99.90;;;;;;5091850;28;20042;-69
2023/04/23 04:24:17;;;;;;;317.95;110.70;;;7.50;99.90;;;;;;5085422;28;20071;-69
2023/04/23 04:26:44;;;;;;;291.55;109.60;;;7.50;99.90;;;;;;5088081;28;20040;-69
2023/04/23 04:29:10;;;;;;;328.02;112.68;;;7.50;99.90;;;;;;5085550;28;20574;-69
2023/04/23 04:31:36;;;;;;;410.02;116.03;;;7.50;99.90;;;;;;5074303;28;20133;-69
2023/04/23 04:34:02;;;;;;;466.88;117.47;;;7.60;99.90;;;;;;5089269;28;20039;-69
2023/04/23 04:36:29;;;;;;;316.05;111.50;;;7.60;99.90;;;;;;5088134;28;20506;-69
2023/04/23 04:38:57;;;;;;;276.80;113.60;;;7.60;99.90;;;;;;5089785;28;20067;-69
2023/04/23 04:41:24;;;;;;;298.80;109.68;;;7.60;99.90;;;;;;5089079;28;20231;-69
2023/04/23 04:43:50;;;;;;;249.32;105.13;;;7.60;99.90;;;;;;5109042;28;20486;-69
2023/04/23 04:46:19;;;;;;;206.45;106.68;;;7.60;99.90;;;;;;5089314;28;20043;-69
2023/04/23 04:48:48;;;;;;;233.27;107.63;;;7.60;99.90;;;;;;5072136;28;20050;-69
2023/04/23 04:51:13;;;;;;;262.90;108.72;;;7.60;99.90;;;;;;5090870;28;20047;-69
2023/04/23 04:53:39;;;;;;;238.82;107.05;;;7.60;99.90;;;;;;5073269;28;20054;-69
2023/04/23 04:56:05;;;;;;;197.30;108.88;;;7.60;99.90;;;;;;5088554;28;20120;-69
2023/04/23 04:58:30;;;;;;;241.35;107.82;;;7.60;99.90;;;;;;5073550;28;20051;-68
2023/04/23 05:00:58;;;;;;;231.57;104.57;;;7.60;99.90;;;;;;5088452;27;20491;-69
2023/04/23 05:03:24;;;;;;;234.70;101.22;;;7.60;99.90;;;;;;5090832;28;20435;-69
2023/04/23 05:05:51;;;;;;;198.80;101.65;;;7.60;99.90;;;;;;5090596;28;20127;-69
2023/04/23 05:08:17;;;;;;;188.73;102.38;;;7.70;99.90;;;;;;5089958;28;20082;-69
2023/04/23 05:10:43;;;;;;;176.02;98.50;;;7.70;99.90;;;;;;5089171;28;20039;-69
2023/04/23 05:13:09;;;;;;;187.38;104.15;;;7.70;99.90;;;;;;5105445;28;20047;-69
2023/04/23 05:15:35;;;;;;;181.10;98.93;;;7.80;99.90;;;;;;5089186;28;20035;-69
2023/04/23 05:18:05;;;;;;;157.60;94.65;;;7.80;99.90;;;;;;5084275;28;20047;-69
2023/04/23 05:20:31;;;;;;;141.18;95.63;;;7.80;99.90;;;;;;5089687;28;20043;-72
2023/04/23 05:22:58;;;;;;;145.23;98.30;;;7.90;99.90;;;;;;5105739;27;20080;-69
2023/04/23 05:25:24;;;;;;;134.55;93.95;;;7.90;99.90;;;;;;5103022;28;20492;-69
2023/04/23 05:27:50;;;;;;;140.30;96.00;;;7.90;99.90;;;;;;5123503;27;20089;-69
2023/04/23 05:30:15;;;;;;;130.82;94.40;;;7.90;99.90;;;;;;5090328;28;20071;-69
2023/04/23 05:32:41;;;;;;;132.85;95.50;;;7.90;99.90;;;;;;5090086;28;20422;-69
2023/04/23 05:35:07;;;;;;;136.48;94.15;;;7.90;99.90;;;;;;5088287;28;20708;-69
2023/04/23 05:37:33;;;;;;;127.90;89.38;;;8.00;99.90;;;;;;5089307;28;20042;-69
2023/04/23 05:39:59;;;;;;;121.03;87.18;;;8.00;99.90;;;;;;5119776;27;20399;-69
2023/04/23 05:42:24;;;;;;;131.57;87.07;;;8.00;99.90;;;;;;5088049;28;20050;-70
2023/04/23 05:44:50;;;;;;;116.03;88.68;;;8.10;99.90;;;;;;5087864;28;20087;-69
2023/04/23 05:47:16;;;;;;;116.13;86.95;;;8.10;99.90;;;;;;5105692;27;20126;-69
2023/04/23 05:49:41;;;;;;;122.50;88.28;;;8.10;99.90;;;;;;5107924;28;20039;-69
2023/04/23 05:52:07;;;;;;;118.38;88.97;;;8.20;99.90;;;;;;5104436;28;20050;-69
2023/04/23 05:54:33;;;;;;;115.13;86.65;;;8.20;99.90;;;;;;5088971;28;20050;-69
2023/04/23 05:56:58;;;;;;;112.07;85.18;;;8.20;99.90;;;;;;5084604;28;20857;-69
2023/04/23 05:59:24;;;;;;;107.95;87.43;;;8.30;99.90;;;;;;5093763;28;20046;-70
2023/04/23 06:01:50;;;;;;;113.68;90.15;;;8.40;99.90;;;;;;5089456;28;20474;-69
2023/04/23 06:04:16;;;;;;;115.28;88.63;;;8.50;99.90;;;;;;5087379;28;20140;-69
2023/04/23 06:06:42;;;;;;;111.15;88.88;;;8.50;99.90;;;;;;5088192;28;20028;-69
2023/04/23 06:09:08;;;;;;;113.15;89.53;;;8.60;99.90;;;;;;5089906;28;20048;-69
2023/04/23 06:11:34;;;;;;;125.15;89.75;;;8.70;99.90;;;;;;5088136;28;20039;-69
2023/04/23 06:14:01;;;;;;;112.30;86.05;;;8.90;99.90;;;;;;5102866;28;20032;-69
2023/04/23 06:16:27;;;;;;;119.50;85.32;;;9.10;99.90;;;;;;5086516;28;20040;-69
2023/04/23 06:18:55;;;;;;;108.82;90.05;;;9.40;99.90;;;;;;5105709;28;20046;-69
2023/04/23 06:21:21;;;;;;;117.32;99.97;;;9.50;99.90;;;;;;5086982;28;20039;-69
2023/04/23 06:23:46;;;;;;;124.72;111.65;;;9.50;99.90;;;;;;5085965;28;20092;-69
2023/04/23 06:26:12;;;;;;;147.57;133.80;;;9.50;99.90;;;;;;5086047;28;20515;-69
2023/04/23 06:28:38;;;;;;;142.15;127.32;;;9.50;99.90;;;;;;5120809;27;20052;-69
2023/04/23 06:31:05;;;;;;;143.20;129.15;;;9.50;99.90;;;;;;5087730;28;20445;-69
2023/04/23 06:33:30;;;;;;;135.73;122.63;;;9.60;99.90;;;;;;5086026;28;20058;-69
2023/04/23 06:35:56;;;;;;;152.18;138.18;;;9.80;99.90;;;;;;5089075;28;20043;-69
2023/04/23 06:38:21;;;;;;;169.98;154.57;;;9.90;99.90;;;;;;5089233;28;20042;-69
2023/04/23 06:40:47;;;;;;;190.35;175.35;;;9.90;99.90;;;;;;5070785;28;20047;-69
2023/04/23 06:43:13;;;;;;;170.30;156.35;;;9.90;99.90;;;;;;5087639;28;20088;-69
2023/04/23 06:45:39;;;;;;;163.10;148.85;;;10.00;99.90;;;;;;5087633;28;20562;-69
2023/04/23 06:48:05;;;;;;;142.60;129.82;;;10.40;99.90;;;;;;5086008;28;20054;-69
2023/04/23 06:50:31;;;;;;;167.68;153.18;;;10.80;99.90;;;;;;5090534;28;20039;-69
2023/04/23 06:52:56;;;;;;;185.82;171.55;;;11.30;99.90;;;;;;5087393;28;20040;-70
2023/04/23 06:55:25;;;;;;;231.40;215.30;;;11.40;99.90;;;;;;5084281;28;20043;-69
2023/04/23 06:57:52;;;;;;;182.93;169.73;;;11.40;99.90;;;;;;5086085;28;20119;-69
2023/04/23 07:00:18;;;;;;;182.15;168.07;;;11.40;99.90;;;;;;5087336;28;20487;-69
2023/04/23 07:02:45;;;;;;;174.35;160.93;;;11.60;99.90;;;;;;5087322;28;20048;-69
2023/04/23 07:05:11;;;;;;;196.00;180.85;;;11.60;99.90;;;;;;5071999;28;20048;-69
2023/04/23 07:07:37;;;;;;;172.88;159.32;;;11.60;99.90;;;;;;5087143;28;20574;-69
2023/04/23 07:10:04;;;;;;;202.05;188.05;;;11.80;99.90;;;;;;5087854;28;20105;-69
2023/04/23 07:12:30;;;;;;;145.55;134.55;;;11.90;99.90;;;;;;5120677;28;20067;-69
2023/04/23 07:14:55;;;;;;;141.40;130.05;;;12.00;99.90;;;;;;5067686;28;20505;-69
2023/04/23 07:17:21;;;;;;;169.32;157.25;;;12.20;99.90;;;;;;5082965;28;20077;-69
2023/04/23 07:19:47;;;;;;;94.05;85.60;;;12.30;99.90;;;;;;5080399;28;20184;-70
2023/04/23 07:22:12;;;;;;;100.25;91.10;;;12.40;99.90;;;;;;5081394;28;20494;-69
2023/04/23 07:24:38;;;;;;;98.82;90.03;;;12.30;99.90;;;;;;5080554;28;20048;-69
2023/04/23 07:27:05;;;;;;;87.30;78.93;;;12.40;99.90;;;;;;5080513;28;20043;-69
2023/04/23 07:29:31;;;;;;;71.32;63.67;;;12.30;99.90;;;;;;5079371;28;20052;-69
2023/04/23 07:31:56;;;;;;;56.65;46.78;;;12.20;99.90;;;;;;5082933;28;20058;-69
2023/04/23 07:34:22;;;;;;;65.10;51.78;;;12.10;99.90;;;;;;5106014;28;20097;-69
2023/04/23 07:36:47;;;;;;;62.88;50.85;;;12.00;99.90;;;;;;5081805;28;20043;-69
2023/04/23 07:39:13;;;;;;;64.72;55.45;;;11.90;99.90;;;;;;5083619;28;20043;-69
2023/04/23 07:41:39;;;;;;;70.28;62.83;;;11.90;99.90;;;;;;5085111;28;20039;-69
2023/04/23 07:44:05;;;;;;;75.18;67.60;;;12.10;99.90;;;;;;5082469;28;20043;-69
2023/04/23 07:46:30;;;;;;;61.10;47.92;;;12.40;99.90;;;;;;5070287;28;20039;-69
2023/04/23 07:48:56;;;;;;;70.57;63.60;;;12.60;99.90;;;;;;5069682;28;20047;-69
2023/04/23 07:51:25;;;;;;;59.95;47.33;;;12.60;99.90;;;;;;5089747;28;20031;-69
2023/04/23 07:53:53;;;;;;;59.85;49.63;;;12.70;99.90;;;;;;5084010;28;20043;-69
2023/04/23 07:56:20;;;;;;;51.83;44.22;;;12.80;99.90;;;;;;5069061;28;20039;-69
2023/04/23 07:58:46;;;;;;;52.08;44.10;;;12.90;99.90;;;;;;5082808;28;20075;-69
2023/04/23 08:01:11;;;;;;;47.38;41.40;;;12.80;99.90;;;;;;5072814;28;20114;-69
2023/04/23 08:03:37;;;;;;;54.95;46.03;;;12.80;99.90;;;;;;5091941;28;20078;-69
2023/04/23 08:06:03;;;;;;;52.30;46.63;;;12.70;99.90;;;;;;5088673;28;20128;-69
2023/04/23 08:08:29;;;;;;;54.65;45.92;;;12.80;99.90;;;;;;5074970;28;20114;-69
2023/04/23 08:10:55;;;;;;;53.85;48.15;;;12.80;99.90;;;;;;5092032;28;20045;-69
2023/04/23 08:13:21;;;;;;;52.58;45.30;;;12.90;99.90;;;;;;5086492;28;20071;-69
2023/04/23 08:15:47;;;;;;;61.40;55.33;;;13.00;99.90;;;;;;5070608;28;20040;-69
2023/04/23 08:18:14;;;;;;;47.63;42.58;;;13.20;99.90;;;;;;5090381;28;20476;-69
2023/04/23 08:20:39;;;;;;;49.20;42.20;;;13.30;99.90;;;;;;5090233;28;20040;-69
2023/04/23 08:23:05;;;;;;;52.75;44.03;;;13.40;99.90;;;;;;5108348;28;20095;-69
2023/04/23 08:25:31;;;;;;;50.65;44.65;;;13.40;99.90;;;;;;5087871;28;20074;-70
2023/04/23 08:27:57;;;;;;;50.17;44.75;;;13.50;99.90;;;;;;5088675;28;20488;-69
2023/04/23 08:30:23;;;;;;;49.55;43.90;;;13.50;99.90;;;;;;5073409;28;20395;-69
2023/04/23 08:32:52;;;;;;;46.25;40.75;;;13.50;99.90;;;;;;5072434;28;20040;-69
2023/04/23 08:35:18;;;;;;;49.42;42.60;;;13.60;99.90;;;;;;5090284;28;20042;-70
2023/04/23 08:37:44;;;;;;;47.63;42.42;;;13.70;99.90;;;;;;5072277;28;20436;-69
2023/04/23 08:40:10;;;;;;;46.05;41.15;;;14.00;99.90;;;;;;5089593;28;20832;-69
2023/04/23 08:42:51;;;;;;;43.40;38.95;;;14.40;99.90;;;;;;5091049;28;20131;-70
2023/04/23 08:45:18;;;;;;;47.53;42.72;;;14.80;99.90;;;;;;5071251;28;20100;-69
2023/04/23 08:47:43;;;;;;;53.03;47.95;;;15.30;99.90;;;;;;5091121;28;20490;-69
2023/04/23 08:50:11;;;;;;;53.72;48.47;;;15.90;99.90;;;;;;5086660;28;20047;-69
2023/04/23 08:52:41;;;;;;;45.55;40.95;;;16.40;99.90;;;;;;5070690;28;20130;-70
2023/04/23 08:55:11;;;;;;;52.47;47.72;;;16.50;99.90;;;;;;5088369;28;20071;-69
2023/04/23 08:57:40;;;;;;;48.60;44.10;;;16.80;99.90;;;;;;5091049;28;20078;-69
2023/04/23 09:00:10;;;;;;;53.17;48.40;;;17.00;99.90;;;;;;5073386;28;20073;-70
2023/04/23 09:02:41;;;;;;;47.30;42.80;;;17.20;99.90;;;;;;5072964;27;20407;-70
2023/04/23 09:05:07;;;;;;;55.03;50.42;;;17.50;99.90;;;;;;5088642;28;20059;-69
2023/04/23 09:07:34;;;;;;;112.93;105.90;;;17.70;99.90;;;;;;5089517;28;20046;-70
2023/04/23 09:10:01;;;;;;;132.07;124.55;;;18.00;99.90;;;;;;5088600;28;20047;-69
2023/04/23 09:12:27;;;;;;;154.52;146.18;;;18.10;99.90;;;;;;5086507;28;20036;-70
2023/04/23 09:14:52;;;;;;;128.10;120.53;;;18.20;99.90;;;;;;5087036;28;20055;-70
2023/04/23 09:17:19;;;;;;;178.45;169.20;;;18.40;99.90;;;;;;5073643;28;20495;-70
2023/04/23 09:19:45;;;;;;;200.48;190.40;;;18.30;99.90;;;;;;5084188;28;20469;-70
2023/04/23 09:22:11;;;;;;;200.35;190.55;;;18.30;99.90;;;;;;5086661;27;20487;-70
2023/04/23 09:24:42;;;;;;;134.45;127.07;;;18.40;99.90;;;;;;5085064;28;20426;-70
2023/04/23 09:27:07;;;;;;;133.48;126.32;;;18.30;99.90;;;;;;5086083;28;20051;-69
2023/04/23 09:29:33;;;;;;;107.13;101.07;;;18.00;99.90;;;;;;5106359;28;20094;-70
2023/04/23 09:32:07;;;;;;;63.30;59.05;;;17.70;99.90;;;;;;5088528;28;20047;-69
2023/04/23 09:34:37;;;;;;;46.80;43.45;;;18.00;99.90;;;;;;5086877;28;20073;-69
2023/04/23 09:37:05;;;;;;;34.17;31.48;;;18.20;99.90;;;;;;5089497;28;20077;-69
2023/04/23 09:39:33;;;;;;;35.90;33.20;;;17.90;99.90;;;;;;5071313;28;20092;-70
2023/04/23 09:42:04;;;;;;;65.18;61.13;;;17.40;99.90;;;;;;5073533;28;20058;-69
2023/04/23 09:44:31;;;;;;;49.45;45.80;;;17.20;99.90;;;;;;5075623;27;20035;-70
2023/04/23 09:47:08;;;;;;;38.92;35.78;;;17.10;99.90;;;;;;5087459;28;20043;-70
2023/04/23 09:49:44;;;;;;;47.63;44.28;;;17.10;99.90;;;;;;5089703;28;20101;-70
2023/04/23 09:52:10;;;;;;;31.35;28.70;;;17.40;99.90;;;;;;5086377;28;20490;-70
2023/04/23 09:54:36;;;;;;;68.80;64.93;;;17.70;99.90;;;;;;5087694;28;20050;-70
2023/04/23 09:57:05;;;;;;;31.52;28.80;;;17.90;99.90;;;;;;5100471;28;20047;-70
2023/04/23 09:59:31;;;;;;;40.33;36.88;;;18.20;99.90;;;;;;5080553;28;20039;-69
2023/04/23 10:02:02;;;;;;;27.00;24.65;;;18.50;99.90;;;;;;5088772;28;20062;-69
2023/04/23 10:04:27;;;;;;;32.38;30.05;;;18.50;99.90;;;;;;5090445;27;20135;-69
2023/04/23 10:06:54;;;;;;;30.80;28.52;;;18.30;99.90;;;;;;5086091;28;20563;-69
2023/04/23 10:09:23;;;;;;;31.15;28.77;;;18.30;99.90;;;;;;5089225;28;20073;-69
2023/04/23 10:12:03;;;;;;;30.52;28.17;;;18.30;99.90;;;;;;5120271;27;20085;-69
2023/04/23 10:14:29;;;;;;;30.90;28.58;;;17.90;99.90;;;;;;5071931;28;20031;-69
2023/04/23 10:17:02;;;;;;;31.77;29.27;;;17.70;99.90;;;;;;5086687;28;20036;-70
2023/04/23 10:19:28;;;;;;;31.35;29.15;;;17.80;99.90;;;;;;5084484;28;20040;-69
2023/04/23 10:21:57;;;;;;;29.50;27.20;;;17.70;99.90;;;;;;5087791;28;20031;-69
2023/04/23 10:24:24;;;;;;;29.77;27.48;;;17.50;99.90;;;;;;5090511;28;20372;-69
2023/04/23 10:26:52;;;;;;;28.73;26.42;;;17.30;99.90;;;;;;5104544;28;20039;-69
2023/04/23 10:29:23;;;;;;;30.55;28.27;;;17.20;99.90;;;;;;5085273;28;20108;-69
2023/04/23 10:31:51;;;;;;;28.80;26.48;;;17.00;99.90;;;;;;5087527;28;20043;-69
2023/04/23 10:34:18;;;;;;;29.15;26.98;;;17.00;99.90;;;;;;5086163;28;20035;-69
2023/04/23 10:36:43;;;;;;;29.35;26.85;;;17.00;99.90;;;;;;5087912;28;20228;-69
2023/04/23 10:39:11;;;;;;;25.80;23.73;;;16.90;99.90;;;;;;5107988;27;20123;-69
2023/04/23 10:41:42;;;;;;;27.40;25.10;;;17.00;99.90;;;;;;5086750;28;20436;-69
2023/04/23 10:44:12;;;;;;;26.60;24.40;;;17.00;99.90;;;;;;5069786;28;20450;-69
2023/04/23 10:46:38;;;;;;;30.20;27.73;;;16.90;99.90;;;;;;5104631;28;20040;-69
2023/04/23 10:49:15;;;;;;;26.23;23.98;;;17.00;99.90;;;;;;5088850;28;20038;-69
2023/04/23 10:51:47;;;;;;;24.70;22.83;;;17.40;99.90;;;;;;5105460;28;20027;-69
2023/04/23 10:54:14;;;;;;;27.10;24.90;;;17.80;99.90;;;;;;5069159;28;20048;-69
2023/04/23 10:56:41;;;;;;;28.40;26.30;;;18.00;99.90;;;;;;5069384;28;20088;-70
2023/04/23 10:59:28;;;;;;;27.63;25.42;;;18.10;99.90;;;;;;5071209;28;20032;-69
2023/04/23 11:02:04;;;;;;;27.05;25.15;;;18.40;99.90;;;;;;5086808;28;20051;-69
2023/04/23 11:04:30;;;;;;;28.38;25.95;;;18.70;99.90;;;;;;5122382;27;20042;-69
2023/04/23 11:07:06;;;;;;;28.90;27.02;;;18.80;99.90;;;;;;5086778;28;20071;-69
2023/04/23 11:09:38;;;;;;;24.92;23.02;;;18.70;99.90;;;;;;5088440;28;20047;-69
2023/04/23 11:12:23;;;;;;;51.85;48.90;;;18.60;99.90;;;;;;5087776;28;20493;-69
2023/04/23 11:14:49;;;;;;;;;;;18.60;99.90;;;;;;5086108;28;20043;-69
2023/04/23 11:17:17;;;;;;;35.22;32.72;;;18.80;99.90;;;;;;5068689;28;20230;-69
2023/04/23 11:20:02;;;;;;;28.38;26.55;;;19.10;99.90;;;;;;5105984;28;20052;-69
2023/04/23 11:22:48;;;;;;;22.73;20.98;;;19.10;99.90;;;;;;5087625;28;20512;-69
2023/04/23 11:25:24;;;;;;;30.42;28.55;;;18.90;99.90;;;;;;5086906;28;20077;-69
2023/04/23 11:27:51;;;;;;;23.25;21.58;;;18.50;99.90;;;;;;5087716;28;20059;-69
2023/04/23 11:30:22;;;;;;;28.42;26.42;;;18.10;99.90;;;;;;5071142;28;20043;-69
2023/04/23 11:32:50;;;;;;;20.52;19.08;;;17.80;99.90;;;;;;5071139;28;20055;-69
2023/04/23 11:35:22;;;;;;;17.27;16.00;;;17.60;99.90;;;;;;5088738;28;20390;-69
2023/04/23 11:37:48;;;;;;;23.20;21.50;;;17.50;99.90;;;;;;5091878;28;20051;-69
2023/04/23 11:40:18;;;;;;;42.58;40.28;;;17.50;99.90;;;;;;5092176;28;20085;-69
2023/04/23 11:42:49;;;;;;;17.48;16.00;;;17.60;99.90;;;;;;5092002;28;20062;-69
2023/04/23 11:45:26;;;;;;;17.20;15.90;;;17.60;99.90;;;;;;5088256;28;20073;-69
2023/04/23 11:47:56;;;;;;;33.10;31.25;;;17.60;99.90;;;;;;5089712;28;20047;-69
2023/04/23 11:50:26;;;;;;;22.65;21.20;;;17.60;99.90;;;;;;5076102;28;20399;-69
2023/04/23 11:52:52;;;;;;;18.83;17.38;;;18.00;99.90;;;;;;5091121;28;20039;-69
2023/04/23 11:55:19;;;;;;;15.40;14.13;;;18.50;99.90;;;;;;5074528;28;20452;-69
2023/04/23 11:57:47;;;;;;;20.55;19.13;;;18.60;99.90;;;;;;5081290;28;20410;-69
2023/04/23 12:00:23;;;;;;;16.92;15.50;;;18.50;99.90;;;;;;5091688;28;20047;-67
2023/04/23 12:02:59;;;;;;;18.27;16.67;;;18.60;99.90;;;;;;5103970;28;20047;-67
2023/04/23 12:05:33;;;;;;;16.23;14.82;;;18.90;99.90;;;;;;5091296;28;20495;-67
2023/04/23 12:08:33;;;;;;;14.57;13.27;;;19.00;99.90;;;;;;5109195;28;20543;-67
2023/04/23 12:11:01;;;;;;;15.35;14.05;;;18.90;99.90;;;;;;5013502;28;20926;-67
2023/04/23 12:13:30;;;;;;;15.95;14.55;;;18.70;99.90;;;;;;5045917;28;20049;-67
2023/04/23 12:16:03;;;;;;;17.33;15.85;;;18.70;99.90;;;;;;5013092;28;20072;-67
2023/04/23 12:18:31;;;;;;;16.43;15.30;;;18.80;99.90;;;;;;5037672;28;20049;-67
2023/04/23 12:21:08;;;;;;;16.15;14.85;;;19.20;99.90;;;;;;5033632;28;20044;-67
2023/04/23 12:23:35;;;;;;;16.45;15.05;;;19.40;99.90;;;;;;5044738;28;20111;-68